Time;durP1;ratioP1;P1;durP2;ratioP2;P2;SDS_P1;SDS_P2;PMS_P1;PMS_P2;Temp;Humidity;BMP_temperature;BMP_pressure;BME280_temperature;BME280_humidity;BME280_pressure;Samples;Min_cycle;Max_cycle;Signal;HPM_P1;HPM_P2
2024/01/26 00:00:28;;;;;;;8.90;3.27;;;;;;;;;;4934882;29;20298;-75
2024/01/26 00:02:53;;;;;;;11.77;3.50;;;;;;;;;;4932406;28;20380;-74
2024/01/26 00:05:19;;;;;;;11.50;3.80;;;;;;;;;;4932442;29;20240;-74
2024/01/26 00:07:44;;;;;;;12.33;3.70;;;;;;;;;;4921515;29;20318;-75
2024/01/26 00:10:10;;;;;;;15.40;3.60;;;;;;;;;;4910379;28;20233;-75
2024/01/26 00:12:36;;;;;;;14.90;4.13;;;;;;;;;;4905059;29;20384;-75
2024/01/26 00:15:01;;;;;;;13.47;3.77;;;;;;;;;;4919129;29;20229;-76
2024/01/26 00:17:27;;;;;;;11.27;3.77;;;;;;;;;;4905846;29;20262;-74
2024/01/26 00:19:52;;;;;;;12.23;3.77;;;;;;;;;;4934569;28;20225;-75
2024/01/26 00:22:18;;;;;;;11.40;3.73;;;;;;;;;;4913563;29;20236;-74
2024/01/26 00:24:43;;;;;;;12.00;3.77;;;;;;;;;;4929086;29;20233;-74
2024/01/26 00:27:08;;;;;;;10.77;3.37;;;;;;;;;;4931770;29;20237;-74
2024/01/26 00:29:34;;;;;;;9.30;3.40;;;;;;;;;;4912920;29;20270;-74
2024/01/26 00:31:59;;;;;;;12.13;3.67;;;;;;;;;;4915071;29;20614;-74
2024/01/26 00:34:24;;;;;;;11.23;4.10;;;;;;;;;;4910223;28;20311;-74
2024/01/26 00:36:49;;;;;;;12.20;3.90;;;;;;;;;;4913873;29;20284;-74
2024/01/26 00:39:16;;;;;;;12.67;3.93;;;;;;;;;;4900045;29;20279;-75
2024/01/26 00:41:42;;;;;;;13.13;3.63;;;;;;;;;;4910577;29;20346;-74
2024/01/26 00:44:07;;;;;;;10.57;3.67;;;;;;;;;;4910672;29;20324;-74
2024/01/26 00:46:33;;;;;;;13.83;3.77;;;;;;;;;;4919311;29;20706;-74
2024/01/26 00:48:58;;;;;;;11.47;3.43;;;;;;;;;;4919911;29;20232;-71
2024/01/26 00:51:23;;;;;;;12.53;3.97;;;;;;;;;;4936498;29;20233;-72
2024/01/26 00:53:49;;;;;;;11.60;3.63;;;;;;;;;;4935541;29;20241;-71
2024/01/26 00:56:14;;;;;;;11.60;3.30;;;;;;;;;;4939200;28;20640;-71
2024/01/26 00:58:39;;;;;;;12.10;3.60;;;;;;;;;;4912058;29;20670;-70
2024/01/26 01:01:05;;;;;;;11.87;3.43;;;;;;;;;;4937453;28;20312;-71
2024/01/26 01:03:30;;;;;;;11.77;3.37;;;;;;;;;;4920727;29;20245;-70
2024/01/26 01:05:56;;;;;;;11.30;3.67;;;;;;;;;;4935937;29;20237;-71
2024/01/26 01:08:21;;;;;;;11.30;3.30;;;;;;;;;;4913331;28;20246;-71
2024/01/26 01:10:47;;;;;;;9.43;2.63;;;;;;;;;;4938976;28;20974;-71
2024/01/26 01:13:12;;;;;;;8.77;3.07;;;;;;;;;;4911121;28;20230;-71
2024/01/26 01:15:40;;;;;;;10.63;3.10;;;;;;;;;;4923717;28;20500;-71
2024/01/26 01:18:05;;;;;;;9.23;2.90;;;;;;;;;;4906195;29;20236;-71
2024/01/26 01:20:31;;;;;;;11.60;2.93;;;;;;;;;;4936104;29;20314;-75
2024/01/26 01:22:58;;;;;;;11.17;3.00;;;;;;;;;;4918073;29;20340;-75
2024/01/26 01:25:25;;;;;;;7.90;2.83;;;;;;;;;;4920657;29;20244;-74
2024/01/26 01:27:50;;;;;;;11.93;2.70;;;;;;;;;;4938440;28;20225;-75
2024/01/26 01:30:16;;;;;;;11.03;2.73;;;;;;;;;;4912630;29;20806;-76
2024/01/26 01:32:41;;;;;;;12.10;2.77;;;;;;;;;;4917297;29;20250;-75
2024/01/26 01:35:07;;;;;;;10.13;2.77;;;;;;;;;;4914166;29;20232;-75
2024/01/26 01:37:32;;;;;;;12.13;2.80;;;;;;;;;;4917964;29;20263;-76
2024/01/26 01:39:57;;;;;;;8.40;2.20;;;;;;;;;;4912646;29;20244;-76
2024/01/26 01:42:23;;;;;;;10.23;2.50;;;;;;;;;;4905655;28;20236;-74
2024/01/26 01:44:48;;;;;;;12.00;3.00;;;;;;;;;;4919540;29;20299;-75
2024/01/26 01:47:14;;;;;;;7.67;2.57;;;;;;;;;;4929695;28;20252;-77
2024/01/26 01:49:39;;;;;;;9.67;2.40;;;;;;;;;;4937920;28;20229;-73
2024/01/26 01:52:05;;;;;;;8.30;2.70;;;;;;;;;;4920092;28;20243;-75
2024/01/26 01:54:30;;;;;;;11.37;2.90;;;;;;;;;;4915985;29;20249;-72
2024/01/26 01:56:56;;;;;;;12.60;3.17;;;;;;;;;;4904912;29;20711;-72
2024/01/26 01:59:21;;;;;;;8.37;2.60;;;;;;;;;;4915869;28;20225;-71
2024/01/26 02:01:46;;;;;;;10.30;2.70;;;;;;;;;;4934061;28;20230;-71
2024/01/26 02:04:12;;;;;;;10.27;2.50;;;;;;;;;;4915653;29;20294;-72
2024/01/26 02:06:37;;;;;;;8.27;2.57;;;;;;;;;;4922273;29;20287;-71
2024/01/26 02:09:02;;;;;;;9.40;2.70;;;;;;;;;;4920096;29;20221;-71
2024/01/26 02:11:28;;;;;;;10.90;3.00;;;;;;;;;;4919925;29;20224;-71
2024/01/26 02:13:53;;;;;;;7.50;2.50;;;;;;;;;;4920538;29;20690;-71
2024/01/26 02:16:18;;;;;;;11.07;2.80;;;;;;;;;;4906329;29;20973;-71
2024/01/26 02:18:44;;;;;;;13.87;2.77;;;;;;;;;;4917680;29;20221;-71
2024/01/26 02:21:09;;;;;;;11.20;2.70;;;;;;;;;;4935302;29;20229;-71
2024/01/26 02:23:41;;;;;;;11.40;2.80;;;;;;;;;;4919214;29;20228;-71
2024/01/26 02:26:06;;;;;;;9.27;2.73;;;;;;;;;;4933289;28;20782;-70
2024/01/26 02:28:32;;;;;;;9.97;2.43;;;;;;;;;;4907475;29;20228;-70
2024/01/26 02:30:57;;;;;;;9.63;2.70;;;;;;;;;;4913646;29;20623;-70
2024/01/26 02:33:22;;;;;;;8.57;2.43;;;;;;;;;;4906273;29;20233;-70
2024/01/26 02:35:48;;;;;;;8.90;2.57;;;;;;;;;;4901780;29;20334;-70
2024/01/26 02:38:13;;;;;;;6.80;2.40;;;;;;;;;;4928211;28;20273;-72
2024/01/26 02:40:38;;;;;;;12.13;2.70;;;;;;;;;;4934686;28;20312;-71
2024/01/26 02:43:04;;;;;;;7.67;2.50;;;;;;;;;;4936163;28;20710;-72
2024/01/26 02:45:29;;;;;;;11.50;2.67;;;;;;;;;;4918910;29;20908;-72
2024/01/26 02:47:55;;;;;;;8.83;2.53;;;;;;;;;;4927250;29;20225;-72
2024/01/26 02:50:20;;;;;;;12.13;2.63;;;;;;;;;;4933358;28;20232;-71
2024/01/26 02:52:45;;;;;;;10.73;2.83;;;;;;;;;;4935837;28;20311;-71
2024/01/26 02:55:11;;;;;;;7.53;2.40;;;;;;;;;;4932731;29;20230;-71
2024/01/26 02:57:36;;;;;;;9.23;2.80;;;;;;;;;;4936347;29;20229;-72
2024/01/26 03:00:01;;;;;;;9.17;2.70;;;;;;;;;;4915509;29;20229;-71
2024/01/26 03:02:27;;;;;;;9.53;2.70;;;;;;;;;;4918857;29;20324;-71
2024/01/26 03:04:52;;;;;;;8.67;2.50;;;;;;;;;;4917731;29;20237;-70
2024/01/26 03:07:17;;;;;;;9.93;2.33;;;;;;;;;;4917727;28;20238;-71
2024/01/26 03:09:43;;;;;;;8.40;2.50;;;;;;;;;;4918761;29;20380;-71
2024/01/26 03:12:08;;;;;;;9.60;2.93;;;;;;;;;;4922786;28;20959;-72
2024/01/26 03:14:33;;;;;;;10.57;2.90;;;;;;;;;;4930098;29;20620;-71
2024/01/26 03:16:59;;;;;;;9.37;2.63;;;;;;;;;;4932986;28;20684;-71
2024/01/26 03:19:24;;;;;;;9.80;2.80;;;;;;;;;;4932301;29;20630;-71
2024/01/26 03:21:49;;;;;;;8.23;2.73;;;;;;;;;;4919186;29;20383;-73
2024/01/26 03:24:15;;;;;;;12.37;3.10;;;;;;;;;;4933353;28;20364;-71
2024/01/26 03:26:40;;;;;;;9.83;2.73;;;;;;;;;;4908115;29;20685;-71
2024/01/26 03:29:06;;;;;;;8.93;2.80;;;;;;;;;;4915753;28;20272;-70
2024/01/26 03:31:31;;;;;;;10.03;2.90;;;;;;;;;;4917261;29;20315;-70
2024/01/26 03:33:56;;;;;;;10.93;2.90;;;;;;;;;;4934579;28;20221;-71
2024/01/26 03:36:22;;;;;;;10.50;2.60;;;;;;;;;;4912199;29;20232;-71
2024/01/26 03:38:47;;;;;;;8.37;2.70;;;;;;;;;;4932580;29;20228;-71
2024/01/26 03:41:13;;;;;;;8.60;2.93;;;;;;;;;;4926112;29;20271;-71
2024/01/26 03:43:38;;;;;;;13.27;2.80;;;;;;;;;;4917028;29;20221;-70
2024/01/26 03:46:03;;;;;;;10.37;2.50;;;;;;;;;;4927145;28;20244;-73
2024/01/26 03:48:29;;;;;;;10.23;2.90;;;;;;;;;;4930814;29;20221;-71
2024/01/26 03:50:54;;;;;;;11.20;3.17;;;;;;;;;;4899384;29;20234;-71
2024/01/26 03:53:19;;;;;;;11.13;2.80;;;;;;;;;;4930489;28;20228;-72
2024/01/26 03:55:45;;;;;;;10.00;2.97;;;;;;;;;;4917526;29;21027;-71
2024/01/26 03:58:10;;;;;;;12.10;3.00;;;;;;;;;;4916312;29;20254;-72
2024/01/26 04:00:35;;;;;;;12.43;2.90;;;;;;;;;;4933018;28;20398;-71
2024/01/26 04:03:01;;;;;;;12.47;2.97;;;;;;;;;;4932754;28;20225;-72
2024/01/26 04:05:26;;;;;;;8.10;2.60;;;;;;;;;;4917908;28;20260;-71
2024/01/26 04:07:52;;;;;;;13.47;3.07;;;;;;;;;;4932298;29;20896;-72
2024/01/26 04:10:17;;;;;;;8.60;2.73;;;;;;;;;;4914161;28;20260;-71
2024/01/26 04:12:42;;;;;;;10.00;3.00;;;;;;;;;;4933384;28;20279;-71
2024/01/26 04:15:07;;;;;;;10.03;2.73;;;;;;;;;;4917877;28;20645;-72
2024/01/26 04:17:33;;;;;;;9.93;2.90;;;;;;;;;;4917990;29;20625;-70
2024/01/26 04:19:58;;;;;;;10.73;2.83;;;;;;;;;;4920917;29;20221;-72
2024/01/26 04:22:24;;;;;;;12.87;2.83;;;;;;;;;;4937924;28;20232;-71
2024/01/26 04:24:49;;;;;;;12.77;3.03;;;;;;;;;;4914467;29;20294;-71
2024/01/26 04:27:14;;;;;;;12.60;2.87;;;;;;;;;;4908291;28;20233;-71
2024/01/26 04:29:40;;;;;;;8.63;2.83;;;;;;;;;;4932424;29;20320;-72
2024/01/26 04:32:05;;;;;;;12.50;2.93;;;;;;;;;;4918851;29;20292;-72
2024/01/26 04:34:30;;;;;;;10.00;2.90;;;;;;;;;;4939116;28;20264;-73
2024/01/26 04:36:56;;;;;;;10.10;2.90;;;;;;;;;;4919544;29;20221;-70
2024/01/26 04:39:21;;;;;;;11.00;3.30;;;;;;;;;;4936505;28;20253;-76
2024/01/26 04:41:46;;;;;;;10.00;3.10;;;;;;;;;;4937504;29;20221;-76
2024/01/26 04:44:12;;;;;;;9.83;3.00;;;;;;;;;;4937401;28;20243;-75
2024/01/26 04:46:37;;;;;;;9.83;3.30;;;;;;;;;;4908908;29;20245;-76
2024/01/26 04:49:02;;;;;;;9.50;2.83;;;;;;;;;;4923213;29;20236;-80
2024/01/26 04:51:28;;;;;;;11.00;2.97;;;;;;;;;;4936599;28;20311;-76
2024/01/26 04:53:53;;;;;;;14.60;3.50;;;;;;;;;;4918263;29;20225;-76
2024/01/26 04:56:20;;;;;;;14.33;3.20;;;;;;;;;;4902624;28;20307;-79
2024/01/26 04:58:46;;;;;;;7.90;3.00;;;;;;;;;;4936885;28;20225;-70
2024/01/26 05:01:11;;;;;;;7.40;2.50;;;;;;;;;;4937169;28;20221;-72
2024/01/26 05:03:36;;;;;;;11.13;3.10;;;;;;;;;;4922727;29;20288;-75
2024/01/26 05:06:02;;;;;;;13.10;2.77;;;;;;;;;;4938132;28;20237;-75
2024/01/26 05:08:28;;;;;;;12.63;2.87;;;;;;;;;;4917860;29;20697;-79
2024/01/26 05:10:53;;;;;;;11.77;2.87;;;;;;;;;;4913029;29;20228;-77
2024/01/26 05:13:18;;;;;;;10.27;3.10;;;;;;;;;;4916852;29;20224;-75
2024/01/26 05:15:44;;;;;;;8.97;2.80;;;;;;;;;;4908231;29;20321;-75
2024/01/26 05:18:09;;;;;;;10.50;3.00;;;;;;;;;;4936131;28;20236;-76
2024/01/26 05:20:35;;;;;;;10.73;3.10;;;;;;;;;;4911844;29;20229;-76
2024/01/26 05:23:00;;;;;;;9.77;3.10;;;;;;;;;;4908680;29;20328;-76
2024/01/26 05:25:25;;;;;;;11.07;3.27;;;;;;;;;;4922603;28;20240;-75
2024/01/26 05:27:50;;;;;;;9.90;3.20;;;;;;;;;;4923266;29;20284;-76
2024/01/26 05:30:16;;;;;;;13.00;3.20;;;;;;;;;;4897619;28;20237;-75
2024/01/26 05:32:43;;;;;;;7.80;2.77;;;;;;;;;;4936927;28;20229;-76
2024/01/26 05:35:09;;;;;;;9.43;3.13;;;;;;;;;;4934775;28;20229;-75
2024/01/26 05:37:35;;;;;;;14.93;3.20;;;;;;;;;;4917378;29;20593;-76
2024/01/26 05:40:03;;;;;;;11.97;2.93;;;;;;;;;;4905697;29;20225;-77
2024/01/26 05:42:28;;;;;;;11.23;2.90;;;;;;;;;;4914972;29;20221;-75
2024/01/26 05:44:54;;;;;;;11.73;3.40;;;;;;;;;;4906463;29;20299;-75
2024/01/26 05:47:19;;;;;;;14.27;3.10;;;;;;;;;;4937286;29;20274;-75
2024/01/26 05:49:44;;;;;;;9.70;3.10;;;;;;;;;;4939017;29;20240;-73
2024/01/26 05:52:10;;;;;;;11.27;3.10;;;;;;;;;;4936470;28;20264;-75
2024/01/26 05:54:35;;;;;;;10.00;2.87;;;;;;;;;;4906471;29;20229;-72
2024/01/26 05:57:01;;;;;;;13.03;2.90;;;;;;;;;;4923502;29;20917;-73
2024/01/26 05:59:26;;;;;;;7.70;2.53;;;;;;;;;;4912465;29;20221;-73
2024/01/26 06:01:51;;;;;;;14.40;3.30;;;;;;;;;;4922238;29;20318;-74
2024/01/26 06:04:17;;;;;;;12.80;3.13;;;;;;;;;;4920474;29;20252;-73
2024/01/26 06:06:42;;;;;;;14.97;2.90;;;;;;;;;;4907530;29;20233;-75
2024/01/26 06:09:07;;;;;;;13.03;3.30;;;;;;;;;;4912240;29;20225;-75
2024/01/26 06:11:33;;;;;;;11.70;2.87;;;;;;;;;;4915525;29;20225;-73
2024/01/26 06:13:58;;;;;;;10.57;2.77;;;;;;;;;;4906241;29;20255;-73
2024/01/26 06:16:23;;;;;;;12.67;2.80;;;;;;;;;;4919494;29;21077;-73
2024/01/26 06:18:49;;;;;;;12.53;3.00;;;;;;;;;;4928073;29;20727;-72
2024/01/26 06:21:14;;;;;;;9.77;2.73;;;;;;;;;;4935438;29;20229;-74
2024/01/26 06:23:39;;;;;;;9.20;2.87;;;;;;;;;;4903685;29;20313;-74
2024/01/26 06:26:05;;;;;;;10.87;2.60;;;;;;;;;;4915937;29;20350;-73
2024/01/26 06:28:30;;;;;;;10.33;3.10;;;;;;;;;;4902138;29;20734;-73
2024/01/26 06:30:56;;;;;;;9.87;2.80;;;;;;;;;;4916518;29;20228;-74
2024/01/26 06:33:21;;;;;;;11.83;3.17;;;;;;;;;;4932916;28;20336;-73
2024/01/26 06:35:46;;;;;;;8.57;2.70;;;;;;;;;;4931563;29;21216;-73
2024/01/26 06:38:12;;;;;;;11.50;3.00;;;;;;;;;;4917110;29;21232;-74
2024/01/26 06:40:38;;;;;;;13.50;3.07;;;;;;;;;;4912122;29;20240;-74
2024/01/26 06:43:06;;;;;;;8.97;2.90;;;;;;;;;;4903830;28;20228;-74
2024/01/26 06:45:31;;;;;;;15.67;3.93;;;;;;;;;;4910924;29;20327;-73
2024/01/26 06:47:57;;;;;;;9.77;2.83;;;;;;;;;;4926454;29;20308;-74
2024/01/26 06:50:22;;;;;;;8.93;3.40;;;;;;;;;;4908905;29;20217;-74
2024/01/26 06:52:47;;;;;;;14.77;3.50;;;;;;;;;;4916654;29;20268;-74
2024/01/26 06:55:13;;;;;;;11.33;3.60;;;;;;;;;;4905649;29;20249;-72
2024/01/26 06:57:38;;;;;;;10.63;3.67;;;;;;;;;;4919550;29;20687;-73
2024/01/26 07:00:04;;;;;;;8.60;2.80;;;;;;;;;;4917416;29;20280;-72
2024/01/26 07:02:30;;;;;;;12.33;3.00;;;;;;;;;;4918875;29;20237;-74
2024/01/26 07:04:55;;;;;;;12.40;3.13;;;;;;;;;;4919528;29;20245;-76
2024/01/26 07:07:20;;;;;;;12.13;2.90;;;;;;;;;;4918207;29;20229;-74
2024/01/26 07:09:46;;;;;;;8.93;2.77;;;;;;;;;;4904260;29;20252;-73
2024/01/26 07:12:11;;;;;;;8.30;3.00;;;;;;;;;;4913203;28;20296;-75
2024/01/26 07:14:36;;;;;;;13.17;3.17;;;;;;;;;;4917726;29;20614;-73
2024/01/26 07:17:02;;;;;;;9.13;2.90;;;;;;;;;;4933605;28;20906;-73
2024/01/26 07:19:27;;;;;;;8.90;2.90;;;;;;;;;;4918726;28;20595;-73
2024/01/26 07:21:52;;;;;;;10.80;3.07;;;;;;;;;;4916428;29;20261;-73
2024/01/26 07:24:18;;;;;;;9.70;2.80;;;;;;;;;;4936293;28;20236;-74
2024/01/26 07:26:46;;;;;;;11.70;2.73;;;;;;;;;;4904922;29;20233;-75
2024/01/26 07:29:11;;;;;;;9.27;2.80;;;;;;;;;;4916863;29;20870;-73
2024/01/26 07:31:37;;;;;;;7.97;2.40;;;;;;;;;;4918894;29;20244;-74
2024/01/26 07:34:02;;;;;;;12.80;2.90;;;;;;;;;;4903718;29;20233;-73
2024/01/26 07:36:27;;;;;;;11.10;2.80;;;;;;;;;;4917298;29;20236;-73
2024/01/26 07:38:53;;;;;;;8.97;2.50;;;;;;;;;;4936185;28;20233;-73
2024/01/26 07:41:18;;;;;;;14.60;2.70;;;;;;;;;;4931437;28;20254;-74
2024/01/26 07:43:43;;;;;;;11.67;3.00;;;;;;;;;;4908340;29;20676;-74
2024/01/26 07:46:10;;;;;;;8.43;2.60;;;;;;;;;;4907304;29;20790;-74
2024/01/26 07:48:35;;;;;;;10.00;2.77;;;;;;;;;;4918671;29;20231;-76
2024/01/26 07:51:01;;;;;;;13.23;2.60;;;;;;;;;;4915883;29;20226;-75
2024/01/26 07:53:26;;;;;;;8.87;2.50;;;;;;;;;;4904760;28;20217;-74
2024/01/26 07:55:52;;;;;;;10.70;2.60;;;;;;;;;;4921691;29;20872;-75
2024/01/26 07:58:17;;;;;;;9.53;2.63;;;;;;;;;;4908766;28;20315;-76
2024/01/26 08:00:44;;;;;;;10.00;2.47;;;;;;;;;;4920637;29;20606;-75
2024/01/26 08:03:10;;;;;;;8.17;2.60;;;;;;;;;;4917418;29;20224;-75
2024/01/26 08:05:35;;;;;;;7.40;2.60;;;;;;;;;;4915362;29;20241;-75
2024/01/26 08:08:01;;;;;;;8.30;2.40;;;;;;;;;;4926875;29;20233;-72
2024/01/26 08:10:26;;;;;;;10.27;2.37;;;;;;;;;;4922914;28;20235;-77
2024/01/26 08:12:52;;;;;;;11.83;2.83;;;;;;;;;;4918903;29;20316;-75
2024/01/26 08:15:17;;;;;;;8.93;2.50;;;;;;;;;;4905910;29;20260;-74
2024/01/26 08:17:42;;;;;;;9.43;2.60;;;;;;;;;;4919997;29;20224;-78
2024/01/26 08:20:08;;;;;;;10.10;2.70;;;;;;;;;;4929197;29;20225;-74
2024/01/26 08:22:33;;;;;;;8.37;2.80;;;;;;;;;;4914099;29;20613;-76
2024/01/26 08:25:00;;;;;;;8.70;2.70;;;;;;;;;;4937298;28;20233;-72
2024/01/26 08:27:25;;;;;;;10.00;2.90;;;;;;;;;;4916029;28;20225;-72
2024/01/26 08:29:50;;;;;;;11.10;2.70;;;;;;;;;;4918777;29;20338;-71
2024/01/26 08:32:16;;;;;;;9.70;2.43;;;;;;;;;;4914240;28;20237;-71
2024/01/26 08:34:41;;;;;;;9.97;2.70;;;;;;;;;;4916860;29;20766;-72
2024/01/26 08:37:06;;;;;;;7.40;2.60;;;;;;;;;;4927520;29;20221;-72
2024/01/26 08:39:32;;;;;;;7.93;2.33;;;;;;;;;;4904925;29;20229;-72
2024/01/26 08:41:57;;;;;;;11.83;2.50;;;;;;;;;;4938880;28;20224;-71
2024/01/26 08:44:23;;;;;;;11.37;2.80;;;;;;;;;;4899434;29;20240;-71
2024/01/26 08:46:51;;;;;;;7.73;2.70;;;;;;;;;;4916098;29;20229;-77
2024/01/26 08:49:16;;;;;;;8.30;2.40;;;;;;;;;;4901027;29;20288;-75
2024/01/26 08:51:42;;;;;;;9.43;2.53;;;;;;;;;;4927159;29;20330;-77
2024/01/26 08:54:10;;;;;;;8.80;2.87;;;;;;;;;;4928596;28;20369;-74
2024/01/26 08:56:44;;;;;;;8.93;2.83;;;;;;;;;;4926968;29;20226;-75
2024/01/26 08:59:09;;;;;;;13.80;2.93;;;;;;;;;;4934717;28;20706;-74
2024/01/26 09:01:36;;;;;;;9.83;2.77;;;;;;;;;;4933005;29;20236;-75
2024/01/26 09:04:03;;;;;;;12.13;2.80;;;;;;;;;;4937099;28;20319;-79
2024/01/26 09:06:28;;;;;;;10.03;2.90;;;;;;;;;;4914734;29;20233;-76
2024/01/26 09:08:53;;;;;;;9.40;2.93;;;;;;;;;;4921278;29;20229;-78
2024/01/26 09:11:19;;;;;;;11.50;2.80;;;;;;;;;;4919896;29;20245;-75
2024/01/26 09:13:44;;;;;;;9.23;2.50;;;;;;;;;;4939287;28;20226;-71
2024/01/26 09:16:10;;;;;;;12.20;2.73;;;;;;;;;;4937788;28;20239;-73
2024/01/26 09:18:35;;;;;;;9.27;2.80;;;;;;;;;;4933929;29;20236;-72
2024/01/26 09:21:00;;;;;;;10.20;2.47;;;;;;;;;;4935876;28;20282;-72
2024/01/26 09:23:26;;;;;;;7.60;2.67;;;;;;;;;;4915886;29;20225;-72
2024/01/26 09:25:51;;;;;;;8.00;2.67;;;;;;;;;;4908183;29;20851;-72
2024/01/26 09:35:04;;;;;;;10.57;2.70;;;;;;;;;;4927352;28;20324;-73
2024/01/26 09:37:29;;;;;;;7.03;2.40;;;;;;;;;;4907949;29;20235;-73
2024/01/26 09:39:54;;;;;;;12.47;2.80;;;;;;;;;;4920501;29;20292;-71
2024/01/26 09:42:20;;;;;;;7.20;2.60;;;;;;;;;;4933115;28;20312;-72
2024/01/26 09:44:45;;;;;;;9.20;2.80;;;;;;;;;;4938706;28;20398;-72
2024/01/26 09:47:12;;;;;;;7.93;2.60;;;;;;;;;;4906669;29;20311;-72
2024/01/26 09:49:38;;;;;;;10.70;3.00;;;;;;;;;;4912602;29;20235;-72
2024/01/26 09:52:03;;;;;;;13.20;2.70;;;;;;;;;;4926610;29;20785;-72
2024/01/26 09:54:28;;;;;;;7.57;2.90;;;;;;;;;;4908975;29;20670;-70
2024/01/26 09:56:54;;;;;;;12.00;2.60;;;;;;;;;;4916339;29;20240;-72
2024/01/26 09:59:19;;;;;;;9.50;3.00;;;;;;;;;;4913127;29;20234;-72
2024/01/26 10:01:45;;;;;;;7.73;2.60;;;;;;;;;;4917964;29;20228;-73
2024/01/26 10:04:11;;;;;;;10.40;2.90;;;;;;;;;;4900133;28;20284;-73
2024/01/26 10:06:36;;;;;;;10.93;2.77;;;;;;;;;;4903865;29;20228;-70
2024/01/26 10:09:03;;;;;;;8.07;3.00;;;;;;;;;;4933738;29;20244;-70
2024/01/26 10:11:29;;;;;;;9.63;2.90;;;;;;;;;;4931337;28;20227;-72
2024/01/26 10:13:55;;;;;;;7.97;2.80;;;;;;;;;;4902210;29;20669;-73
2024/01/26 10:16:20;;;;;;;7.40;2.77;;;;;;;;;;4932849;28;20233;-73
2024/01/26 10:18:46;;;;;;;12.23;2.97;;;;;;;;;;4917790;29;20225;-74
2024/01/26 10:21:12;;;;;;;7.10;2.70;;;;;;;;;;4903344;29;20234;-73
2024/01/26 10:23:37;;;;;;;9.80;3.30;;;;;;;;;;4935254;28;20800;-73
2024/01/26 10:26:02;;;;;;;9.67;2.60;;;;;;;;;;4910211;29;20332;-72
2024/01/26 10:28:28;;;;;;;9.50;2.83;;;;;;;;;;4916920;29;20283;-73
2024/01/26 10:30:53;;;;;;;9.37;2.83;;;;;;;;;;4915856;29;20317;-71
2024/01/26 10:33:19;;;;;;;10.10;2.93;;;;;;;;;;4933240;28;20236;-73
2024/01/26 10:35:46;;;;;;;10.07;2.83;;;;;;;;;;4916782;29;20238;-75
2024/01/26 10:38:12;;;;;;;10.53;2.50;;;;;;;;;;4917817;28;20224;-75
2024/01/26 10:40:37;;;;;;;9.43;2.90;;;;;;;;;;4920623;29;20236;-76
2024/01/26 10:43:03;;;;;;;8.97;2.90;;;;;;;;;;4920633;29;20253;-76
2024/01/26 10:48:12;;;;;;;10.87;2.70;;;;;;;;;;4941407;28;20260;-75
2024/01/26 10:50:40;;;;;;;11.97;2.70;;;;;;;;;;4935765;28;20245;-75
2024/01/26 10:53:08;;;;;;;7.70;2.50;;;;;;;;;;4906581;28;20291;-73
2024/01/26 10:55:35;;;;;;;5.73;2.50;;;;;;;;;;4918424;29;20240;-74
2024/01/26 10:58:00;;;;;;;6.67;2.70;;;;;;;;;;4904300;29;20790;-74
2024/01/26 11:00:26;;;;;;;8.30;2.70;;;;;;;;;;4916336;28;20300;-77
2024/01/26 11:02:52;;;;;;;8.17;2.70;;;;;;;;;;4919075;29;20256;-76
2024/01/26 11:05:17;;;;;;;7.30;2.73;;;;;;;;;;4910934;28;20237;-76
2024/01/26 11:07:43;;;;;;;8.70;2.60;;;;;;;;;;4913295;29;20702;-76
2024/01/26 11:10:10;;;;;;;8.97;2.70;;;;;;;;;;4902929;29;20262;-76
2024/01/26 11:12:35;;;;;;;6.37;2.60;;;;;;;;;;4920507;29;20230;-76
2024/01/26 11:15:11;;;;;;;11.10;2.70;;;;;;;;;;4915508;29;20268;-75
2024/01/26 11:18:06;;;;;;;8.53;2.60;;;;;;;;;;4933046;28;20312;-76
2024/01/26 11:20:32;;;;;;;5.73;2.73;;;;;;;;;;4903242;29;20699;-78
2024/01/26 11:23:00;;;;;;;8.17;2.93;;;;;;;;;;4919274;29;20225;-76
2024/01/26 11:25:26;;;;;;;10.63;3.03;;;;;;;;;;4900693;28;20240;-76
2024/01/26 11:28:00;;;;;;;8.27;2.90;;;;;;;;;;4934236;28;20229;-75
2024/01/26 11:30:26;;;;;;;9.60;3.03;;;;;;;;;;4910514;29;20231;-75
2024/01/26 11:32:51;;;;;;;9.03;2.87;;;;;;;;;;4914669;29;20233;-75
2024/01/26 11:35:17;;;;;;;11.13;2.70;;;;;;;;;;4916134;29;20240;-77
2024/01/26 11:37:42;;;;;;;6.17;2.37;;;;;;;;;;4914668;29;20616;-77
2024/01/26 11:40:08;;;;;;;9.23;2.60;;;;;;;;;;4909566;28;20372;-75
2024/01/26 11:42:34;;;;;;;9.10;2.80;;;;;;;;;;4917057;29;20230;-75
2024/01/26 11:45:11;;;;;;;9.93;2.50;;;;;;;;;;4910779;29;20638;-76
2024/01/26 11:47:37;;;;;;;10.00;2.97;;;;;;;;;;4914542;29;20247;-77
2024/01/26 11:50:03;;;;;;;9.67;2.90;;;;;;;;;;4917481;29;20718;-77
2024/01/26 11:52:29;;;;;;;11.47;3.13;;;;;;;;;;4910442;29;20331;-78
2024/01/26 11:54:55;;;;;;;13.27;2.87;;;;;;;;;;4918281;29;20309;-77
2024/01/26 11:57:20;;;;;;;6.83;2.57;;;;;;;;;;4917604;29;20248;-76
2024/01/26 11:59:46;;;;;;;10.60;3.00;;;;;;;;;;4917534;29;20224;-75
2024/01/26 12:02:12;;;;;;;7.67;2.70;;;;;;;;;;4905364;28;20221;-75
2024/01/26 12:04:37;;;;;;;4.80;2.20;;;;;;;;;;4919090;29;20786;-78
2024/01/26 12:07:03;;;;;;;7.30;2.53;;;;;;;;;;4910476;29;20263;-76
2024/01/26 12:09:28;;;;;;;10.13;2.40;;;;;;;;;;4918018;29;20861;-74
2024/01/26 12:11:53;;;;;;;9.17;2.60;;;;;;;;;;4901641;29;20839;-76
2024/01/26 12:14:19;;;;;;;6.57;2.90;;;;;;;;;;4907648;29;20898;-77
2024/01/26 12:16:45;;;;;;;6.87;2.40;;;;;;;;;;4933356;29;20892;-75
2024/01/26 12:19:11;;;;;;;8.77;2.80;;;;;;;;;;4916119;28;20224;-75
2024/01/26 12:21:37;;;;;;;8.33;2.60;;;;;;;;;;4935730;28;20232;-74
2024/01/26 12:24:11;;;;;;;9.10;2.80;;;;;;;;;;4904914;29;20315;-75
2024/01/26 12:26:37;;;;;;;7.07;3.03;;;;;;;;;;4919183;29;20227;-76
2024/01/26 12:29:02;;;;;;;7.57;2.70;;;;;;;;;;4931164;28;20233;-75
2024/01/26 12:31:28;;;;;;;12.33;3.20;;;;;;;;;;4925847;29;20272;-75
2024/01/26 12:33:54;;;;;;;7.37;3.20;;;;;;;;;;4904534;29;20236;-75
2024/01/26 12:36:19;;;;;;;6.00;2.70;;;;;;;;;;4913116;29;20241;-72
2024/01/26 12:38:45;;;;;;;9.80;2.73;;;;;;;;;;4932786;28;20636;-73
2024/01/26 12:41:10;;;;;;;7.50;2.40;;;;;;;;;;4918517;29;20287;-73
2024/01/26 12:43:36;;;;;;;11.50;2.60;;;;;;;;;;4929882;29;20225;-72
2024/01/26 12:46:03;;;;;;;6.73;2.70;;;;;;;;;;4921963;29;20247;-71
2024/01/26 12:48:29;;;;;;;6.50;2.50;;;;;;;;;;4930149;29;20345;-71
2024/01/26 12:50:54;;;;;;;7.13;2.80;;;;;;;;;;4917909;29;20319;-70
2024/01/26 12:53:20;;;;;;;7.73;2.50;;;;;;;;;;4920754;28;20294;-71
2024/01/26 12:55:45;;;;;;;8.23;2.60;;;;;;;;;;4940926;28;20236;-72
2024/01/26 12:58:11;;;;;;;5.93;2.60;;;;;;;;;;4913316;29;20221;-72
2024/01/26 13:00:36;;;;;;;9.33;2.80;;;;;;;;;;4914998;29;20259;-71
2024/01/26 13:03:03;;;;;;;10.40;2.67;;;;;;;;;;4916053;29;20244;-71
2024/01/26 13:05:28;;;;;;;5.60;2.70;;;;;;;;;;4931874;29;20715;-71
2024/01/26 13:07:54;;;;;;;9.20;2.77;;;;;;;;;;4934330;28;20229;-71
2024/01/26 13:10:19;;;;;;;7.63;2.60;;;;;;;;;;4938970;29;20238;-72
2024/01/26 13:12:46;;;;;;;10.70;2.93;;;;;;;;;;4919920;29;20278;-71
2024/01/26 13:15:12;;;;;;;8.50;2.80;;;;;;;;;;4917319;29;20232;-71
2024/01/26 13:17:38;;;;;;;10.53;3.30;;;;;;;;;;4935067;28;20237;-71
2024/01/26 13:20:05;;;;;;;6.50;2.90;;;;;;;;;;4914061;29;20291;-72
2024/01/26 13:22:30;;;;;;;8.50;2.60;;;;;;;;;;4918912;28;20237;-71
2024/01/26 13:24:56;;;;;;;8.57;2.77;;;;;;;;;;4934748;28;20295;-71
2024/01/26 13:27:21;;;;;;;11.67;3.30;;;;;;;;;;4936620;28;20754;-73
2024/01/26 13:29:46;;;;;;;8.00;3.00;;;;;;;;;;4908244;29;20794;-72
2024/01/26 13:32:12;;;;;;;10.90;3.37;;;;;;;;;;4919777;29;20230;-72
2024/01/26 13:34:37;;;;;;;10.67;3.37;;;;;;;;;;4917786;29;20240;-71
2024/01/26 13:37:03;;;;;;;8.97;2.90;;;;;;;;;;4931527;28;20908;-71
2024/01/26 13:39:28;;;;;;;7.33;2.90;;;;;;;;;;4919895;29;20319;-73
2024/01/26 13:41:54;;;;;;;5.17;2.60;;;;;;;;;;4921609;29;20240;-72
2024/01/26 13:44:20;;;;;;;8.30;2.97;;;;;;;;;;4913110;29;20236;-74
2024/01/26 13:46:46;;;;;;;11.07;3.03;;;;;;;;;;4921503;29;20407;-71
2024/01/26 13:49:11;;;;;;;9.10;3.00;;;;;;;;;;4906597;29;20730;-72
2024/01/26 13:51:36;;;;;;;6.43;2.90;;;;;;;;;;4919146;29;20232;-71
2024/01/26 13:54:02;;;;;;;7.73;2.90;;;;;;;;;;4920650;29;20245;-73
2024/01/26 13:56:27;;;;;;;7.93;2.87;;;;;;;;;;4903116;28;21307;-72
2024/01/26 13:58:53;;;;;;;6.77;2.77;;;;;;;;;;4936186;28;20237;-72
2024/01/26 14:01:18;;;;;;;5.60;2.40;;;;;;;;;;4915706;29;20410;-71
2024/01/26 14:03:43;;;;;;;10.17;2.87;;;;;;;;;;4919256;29;20235;-71
2024/01/26 14:06:10;;;;;;;9.13;2.83;;;;;;;;;;4918974;28;20245;-73
2024/01/26 14:08:35;;;;;;;7.33;2.70;;;;;;;;;;4912029;29;20233;-75
2024/01/26 14:11:01;;;;;;;6.87;2.50;;;;;;;;;;4935587;28;20370;-76
2024/01/26 14:13:26;;;;;;;7.03;2.60;;;;;;;;;;4913202;29;20343;-75
2024/01/26 14:15:51;;;;;;;6.23;2.50;;;;;;;;;;4904186;29;20241;-75
2024/01/26 14:18:17;;;;;;;8.57;2.50;;;;;;;;;;4920514;28;20237;-76
2024/01/26 14:20:42;;;;;;;6.77;2.70;;;;;;;;;;4917619;29;20249;-77
2024/01/26 14:23:07;;;;;;;8.50;2.50;;;;;;;;;;4900583;28;20221;-75
2024/01/26 14:25:33;;;;;;;7.97;2.83;;;;;;;;;;4936390;28;20788;-75
2024/01/26 14:27:58;;;;;;;9.37;2.67;;;;;;;;;;4933940;29;20263;-75
2024/01/26 14:30:24;;;;;;;10.13;2.70;;;;;;;;;;4935602;28;20680;-74
2024/01/26 14:32:50;;;;;;;9.40;3.10;;;;;;;;;;4914329;29;20324;-74
2024/01/26 14:35:16;;;;;;;10.53;3.00;;;;;;;;;;4911912;29;20348;-71